Sarfaq Ittuk — OWDD — position and weather

sailwx.info

Track history (hours):
 
Tides and Currents Weather Stations Pressure Air Temp Water Temp Dewpoint Dewpoint Depression Visibility Wind Speed Wind Dir Waves Ship Positions

Sarfaq Ittuk

Last reported at 2020-May-23 13:11 UTC. Time now 2020-May-25 21:29 UTC.
Position N 65°55' W 053°36'.

Length 73 m; beam 11.1 m; draft 3.7 m.

Type: Passenger vessel. MMSI: 331000499.

Date/timePositionNaut miles runAvg speedWind from/ knotsBaromVisibWave heightAir tempDewpointWater temp
2020-May-23 13:11N 65°55' W 053°36'34 6.7
2020-May-23 08:00N 65°25' W 052°54'32 9.3
2020-May-23 04:30N 64°53' W 052°43'1510.2
2020-May-23 03:00N 64°38' W 052°36'510.4
2020-May-23 02:30N 64°32' W 052°34'1010.4
2020-May-23 01:30N 64°22' W 052°29'22 7.3
2020-May-22 22:30N 64°08' W 051°51'4 2.8
2020-May-22 21:00N 64°10' W 051°43'0 0.0
2020-May-22 20:30N 64°10' W 051°43'0 0.0
2020-May-22 18:00N 64°10' W 051°43'0 0.0
2020-May-22 14:30N 64°10' W 051°43'0 0.0
2020-May-22 13:30N 64°10' W 051°43'0 0.0
2020-May-22 12:00N 64°10' W 051°43'0 0.0
2020-May-22 10:30N 64°10' W 051°43'0 0.0
2020-May-22 10:01N 64°10' W 051°43'7 4.9
2020-May-22 08:30N 64°03' W 051°38'21 8.4
2020-May-22 06:00N 63°42' W 051°38'  
2020-May-19 14:44N 63°26' W 051°31'1812.1
2020-May-19 13:16N 63°44' W 051°36'1113.1
2020-May-19 12:27N 63°55' W 051°33'1611.4
2020-May-19 11:01N 64°10' W 051°43'52 6.1
2020-May-19 02:30N 64°55' W 052°44'612.2
2020-May-19 02:00N 65°01' W 052°47'612.2
2020-May-19 01:30N 65°07' W 052°50'1711.6
2020-May-19 00:00N 65°25' W 052°54'8 5.2
2020-May-18 22:30N 65°32' W 052°51'15 8.7
2020-May-18 20:50N 65°40' W 053°20'910.3
2020-May-18 19:56N 65°50' W 053°21'8 5.8
2020-May-18 18:30N 65°55' W 053°37'  
2020-May-16 11:00N 65°42' W 053°20'14 9.6
2020-May-16 09:33N 65°36' W 052°50'11 7.2
2020-May-16 08:00N 65°25' W 052°54'3 5.4
2020-May-16 07:25N 65°22' W 052°51'43 9.7
2020-May-16 03:01N 64°39' W 052°37'5 9.6
2020-May-16 02:30N 64°34' W 052°35'3010.0
2020-May-15 23:31N 64°06' W 052°14'14 9.4
2020-May-15 22:00N 64°10' W 051°43'0 0.0
2020-May-15 20:30N 64°10' W 051°43'0 0.0
2020-May-15 19:01N 64°10' W 051°43'0 0.0
2020-May-15 16:31N 64°10' W 051°43'0 0.0
2020-May-15 16:00N 64°10' W 051°43'0 0.0
2020-May-15 14:00N 64°10' W 051°43'0 0.0
2020-May-15 13:00N 64°10' W 051°43'0 0.0
2020-May-15 11:30N 64°10' W 051°43'0 0.0
2020-May-15 10:00N 64°10' W 051°43'0 0.0
2020-May-15 09:30N 64°10' W 051°43'13 8.3
2020-May-15 08:00N 63°58' W 051°38'13 8.7
2020-May-15 06:30N 63°45' W 051°36'15 9.3
2020-May-15 04:51N 63°30' W 051°34'  
Track history (hours):
 
Tides and Currents Weather Stations Pressure Air Temp Water Temp Dewpoint Dewpoint Depression Visibility Wind Speed Wind Dir Waves Ship Positions

Sarfaq Ittuk

Last reported at 2020-May-23 13:11 UTC. Time now 2020-May-25 21:29 UTC.
Position N 65°55' W 053°36'.

Length 73 m; beam 11.1 m; draft 3.7 m.

Type: Passenger vessel. MMSI: 331000499.

Date/timePositionNaut miles runAvg speedWind from/ knotsBaromVisibWave heightAir tempDewpointWater temp
2020-May-23 13:11N 65°55' W 053°36'34 6.7
2020-May-23 08:00N 65°25' W 052°54'32 9.3
2020-May-23 04:30N 64°53' W 052°43'1510.2
2020-May-23 03:00N 64°38' W 052°36'510.4
2020-May-23 02:30N 64°32' W 052°34'1010.4
2020-May-23 01:30N 64°22' W 052°29'22 7.3
2020-May-22 22:30N 64°08' W 051°51'4 2.8
2020-May-22 21:00N 64°10' W 051°43'0 0.0
2020-May-22 20:30N 64°10' W 051°43'0 0.0
2020-May-22 18:00N 64°10' W 051°43'0 0.0
2020-May-22 14:30N 64°10' W 051°43'0 0.0
2020-May-22 13:30N 64°10' W 051°43'0 0.0
2020-May-22 12:00N 64°10' W 051°43'0 0.0
2020-May-22 10:30N 64°10' W 051°43'0 0.0
2020-May-22 10:01N 64°10' W 051°43'7 4.9
2020-May-22 08:30N 64°03' W 051°38'21 8.4
2020-May-22 06:00N 63°42' W 051°38'  
2020-May-19 14:44N 63°26' W 051°31'1812.1
2020-May-19 13:16N 63°44' W 051°36'1113.1
2020-May-19 12:27N 63°55' W 051°33'1611.4
2020-May-19 11:01N 64°10' W 051°43'52 6.1
2020-May-19 02:30N 64°55' W 052°44'612.2
2020-May-19 02:00N 65°01' W 052°47'612.2
2020-May-19 01:30N 65°07' W 052°50'1711.6
2020-May-19 00:00N 65°25' W 052°54'8 5.2
2020-May-18 22:30N 65°32' W 052°51'15 8.7
2020-May-18 20:50N 65°40' W 053°20'910.3
2020-May-18 19:56N 65°50' W 053°21'8 5.8
2020-May-18 18:30N 65°55' W 053°37'  
2020-May-16 11:00N 65°42' W 053°20'14 9.6
2020-May-16 09:33N 65°36' W 052°50'11 7.2
2020-May-16 08:00N 65°25' W 052°54'3 5.4
2020-May-16 07:25N 65°22' W 052°51'43 9.7
2020-May-16 03:01N 64°39' W 052°37'5 9.6
2020-May-16 02:30N 64°34' W 052°35'3010.0
2020-May-15 23:31N 64°06' W 052°14'14 9.4
2020-May-15 22:00N 64°10' W 051°43'0 0.0
2020-May-15 20:30N 64°10' W 051°43'0 0.0
2020-May-15 19:01N 64°10' W 051°43'0 0.0
2020-May-15 16:31N 64°10' W 051°43'0 0.0
2020-May-15 16:00N 64°10' W 051°43'0 0.0
2020-May-15 14:00N 64°10' W 051°43'0 0.0
2020-May-15 13:00N 64°10' W 051°43'0 0.0
2020-May-15 11:30N 64°10' W 051°43'0 0.0
2020-May-15 10:00N 64°10' W 051°43'0 0.0
2020-May-15 09:30N 64°10' W 051°43'13 8.3
2020-May-15 08:00N 63°58' W 051°38'13 8.7
2020-May-15 06:30N 63°45' W 051°36'15 9.3
2020-May-15 04:51N 63°30' W 051°34'  

Dump ship's entire track history